Time;durP1;ratioP1;P1;durP2;ratioP2;P2;SDS_P1;SDS_P2;PMS_P1;PMS_P2;Temp;Humidity;BMP_temperature;BMP_pressure;BME280_temperature;BME280_humidity;BME280_pressure;Samples;Min_cycle;Max_cycle;Signal;HPM_P1;HPM_P2
2023/11/11 00:02:22;;;;;;;0.00;0.00;;;;;;;-144.99;100.00;67352.69;5031992;28;20183;-87
2023/11/11 00:04:48;;;;;;;0.00;0.00;;;;;;;-144.99;100.00;67352.69;5047219;28;20661;-87
2023/11/11 00:07:15;;;;;;;0.00;0.00;;;;;;;-144.99;100.00;67352.69;5031830;28;20215;-87
2023/11/11 00:09:40;;;;;;;0.00;0.00;;;;;;;-144.99;100.00;67352.69;5047590;28;20534;-87
2023/11/11 00:12:07;;;;;;;0.00;0.00;;;;;;;-144.99;100.00;67352.69;5031872;28;20240;-87
2023/11/11 00:14:33;;;;;;;0.00;0.00;;;;;;;-144.99;100.00;67352.69;5031886;28;20184;-87
2023/11/11 00:16:58;;;;;;;0.30;0.20;;;;;;;-144.99;100.00;67352.69;5046864;28;20207;-87
2023/11/11 00:19:24;;;;;;;0.00;0.00;;;;;;;-144.99;100.00;67352.69;5047561;28;20203;-86
2023/11/11 00:21:52;;;;;;;0.27;0.27;;;;;;;-144.99;100.00;67352.69;5031999;28;20211;-87
2023/11/11 00:24:18;;;;;;;0.00;0.00;;;;;;;-144.99;100.00;67352.69;5046996;28;20198;-88
2023/11/11 00:26:44;;;;;;;0.00;0.00;;;;;;;-144.99;100.00;67352.69;5031712;28;20203;-87
2023/11/11 00:29:09;;;;;;;0.00;0.00;;;;;;;-144.99;100.00;67352.69;5031971;28;20205;-87
2023/11/11 00:31:35;;;;;;;0.07;0.07;;;;;;;-144.99;100.00;67352.69;5031840;28;20266;-87
2023/11/11 00:34:01;;;;;;;0.00;0.00;;;;;;;-144.99;100.00;67352.69;5032623;28;20190;-87
2023/11/11 00:36:27;;;;;;;0.00;0.00;;;;;;;-144.99;100.00;67352.69;5038783;28;20232;-87
2023/11/11 00:38:53;;;;;;;0.30;0.30;;;;;;;-144.99;100.00;67352.69;5031984;28;20219;-86
2023/11/11 00:41:18;;;;;;;0.00;0.00;;;;;;;-144.99;100.00;67352.69;5032518;28;20719;-87
2023/11/11 00:43:43;;;;;;;0.10;0.10;;;;;;;-144.99;100.00;67352.69;5039054;28;20191;-86
2023/11/11 00:46:09;;;;;;;0.00;0.00;;;;;;;-144.99;100.00;67352.69;5031244;28;20207;-87
2023/11/11 00:48:34;;;;;;;0.00;0.00;;;;;;;-144.99;100.00;67352.69;5032118;28;20194;-87
2023/11/11 00:51:00;;;;;;;0.00;0.00;;;;;;;-144.99;100.00;67352.69;5032156;28;20211;-87
2023/11/11 00:53:25;;;;;;;0.00;0.00;;;;;;;-144.99;100.00;67352.69;5031710;28;20211;-87
2023/11/11 00:55:50;;;;;;;0.00;0.00;;;;;;;-144.99;100.00;67352.69;5031307;28;20219;-86
2023/11/11 00:58:16;;;;;;;0.00;0.00;;;;;;;-144.99;100.00;67352.69;5031820;28;20238;-87
2023/11/11 01:00:43;;;;;;;0.00;0.00;;;;;;;-144.99;100.00;67352.69;5046457;28;20191;-87
2023/11/11 01:03:09;;;;;;;0.00;0.00;;;;;;;-144.99;100.00;67352.69;5031239;28;20678;-87
2023/11/11 01:05:35;;;;;;;0.00;0.00;;;;;;;-144.99;100.00;67352.69;5032753;28;20168;-87
2023/11/11 01:08:00;;;;;;;0.00;0.00;;;;;;;-144.99;100.00;67352.69;5031234;28;20204;-87
2023/11/11 01:10:26;;;;;;;0.00;0.00;;;;;;;-144.99;100.00;67352.69;5033992;28;20184;-86
2023/11/11 01:12:52;;;;;;;0.00;0.00;;;;;;;-144.99;100.00;67352.69;5035053;28;20275;-86
2023/11/11 01:15:17;;;;;;;0.00;0.00;;;;;;;-144.99;100.00;67352.69;5050152;28;20222;-87
2023/11/11 01:17:43;;;;;;;0.00;0.00;;;;;;;-144.99;100.00;67352.69;5050315;28;20219;-87
2023/11/11 01:20:09;;;;;;;0.00;0.00;;;;;;;-144.99;100.00;67352.69;5034953;28;20191;-87
2023/11/11 01:22:35;;;;;;;0.00;0.00;;;;;;;-144.99;100.00;67352.69;5034960;28;20325;-86
2023/11/11 01:25:00;;;;;;;0.53;0.53;;;;;;;-144.99;100.00;67352.69;5050143;28;20666;-87
2023/11/11 01:27:26;;;;;;;0.00;0.00;;;;;;;-144.99;100.00;67352.69;5046617;28;20274;-86
2023/11/11 01:29:52;;;;;;;0.00;0.00;;;;;;;-144.99;100.00;67352.69;5050058;28;20187;-87
2023/11/11 01:32:17;;;;;;;0.03;0.03;;;;;;;-144.99;100.00;67352.69;5050616;28;20281;-87
2023/11/11 01:34:43;;;;;;;0.17;0.17;;;;;;;-144.99;100.00;67352.69;5050135;28;20199;-86
2023/11/11 01:37:09;;;;;;;0.00;0.00;;;;;;;-144.99;100.00;67352.69;5049858;28;20218;-87
2023/11/11 01:39:35;;;;;;;0.00;0.00;;;;;;;-144.99;100.00;67352.69;5050069;28;20772;-86
2023/11/11 01:42:01;;;;;;;0.07;0.07;;;;;;;-144.99;100.00;67352.69;5050131;28;20266;-86
2023/11/11 01:44:26;;;;;;;0.17;0.17;;;;;;;-144.99;100.00;67352.69;5050464;28;20674;-87
2023/11/11 01:46:52;;;;;;;0.00;0.00;;;;;;;-144.99;100.00;67352.69;5053346;22;20226;-86
2023/11/11 01:49:18;;;;;;;0.00;0.00;;;;;;;-144.99;100.00;67352.69;5053550;28;20577;-86
2023/11/11 01:51:44;;;;;;;0.00;0.00;;;;;;;-144.99;100.00;67352.69;5059008;28;20175;-86
2023/11/11 01:54:11;;;;;;;0.00;0.00;;;;;;;-144.99;100.00;67352.69;5061448;28;20189;-87
2023/11/11 01:56:39;;;;;;;0.10;0.10;;;;;;;-144.99;100.00;67352.69;5055945;28;20294;-86
2023/11/11 01:59:05;;;;;;;0.00;0.00;;;;;;;-144.99;100.00;67352.69;5062270;28;20190;-86
2023/11/11 02:01:31;;;;;;;0.00;0.00;;;;;;;-144.99;100.00;67352.69;5062803;28;20232;-86
2023/11/11 02:03:56;;;;;;;1.60;0.83;;;;;;;-144.99;100.00;67352.69;5061754;28;20191;-86
2023/11/11 02:06:22;;;;;;;0.00;0.00;;;;;;;-144.99;100.00;67352.69;5062603;28;20257;-86
2023/11/11 02:08:48;;;;;;;0.00;0.00;;;;;;;-144.99;100.00;67352.69;5054620;28;20641;-87
2023/11/11 02:11:13;;;;;;;0.10;0.10;;;;;;;-144.99;100.00;67352.69;5060193;28;20189;-86
2023/11/11 02:13:39;;;;;;;0.00;0.00;;;;;;;-144.99;100.00;67352.69;5056961;28;20193;-86
2023/11/11 02:16:06;;;;;;;0.67;0.67;;;;;;;-144.99;100.00;67352.69;5060257;28;20191;-87
2023/11/11 02:18:31;;;;;;;0.00;0.00;;;;;;;-144.99;100.00;67352.69;5055548;28;20218;-86
2023/11/11 02:20:57;;;;;;;0.00;0.00;;;;;;;-144.99;100.00;67352.69;5061950;28;20574;-86
2023/11/11 02:23:36;;;;;;;0.00;0.00;;;;;;;-144.99;100.00;67352.69;5053676;28;20653;-86
2023/11/11 02:26:03;;;;;;;0.20;0.20;;;;;;;-144.99;100.00;67352.69;5058615;28;20184;-87
2023/11/11 02:28:29;;;;;;;0.00;0.00;;;;;;;-144.99;100.00;67352.69;5058259;28;20245;-86
2023/11/11 02:30:55;;;;;;;0.00;0.00;;;;;;;-144.99;100.00;67352.69;5053634;28;20570;-87
2023/11/11 02:33:20;;;;;;;0.00;0.00;;;;;;;-144.99;100.00;67352.69;5060645;28;20186;-86
2023/11/11 02:35:46;;;;;;;0.00;0.00;;;;;;;-144.99;100.00;67352.69;5055094;28;20206;-85
2023/11/11 02:38:12;;;;;;;0.77;0.77;;;;;;;-144.99;100.00;67352.69;5059547;28;20202;-86
2023/11/11 02:40:39;;;;;;;4.90;0.40;;;;;;;-144.99;100.00;67352.69;5055265;28;20218;-85
2023/11/11 02:43:05;;;;;;;0.00;0.00;;;;;;;-144.99;100.00;67352.69;5058624;28;20656;-86
2023/11/11 02:45:30;;;;;;;0.00;0.00;;;;;;;-144.99;100.00;67352.69;5064911;28;20184;-87
2023/11/11 02:47:55;;;;;;;0.00;0.00;;;;;;;-144.99;100.00;67352.69;5054697;28;20249;-86
2023/11/11 02:50:21;;;;;;;0.00;0.00;;;;;;;-144.99;100.00;67352.69;5054656;28;20548;-86
2023/11/11 02:52:46;;;;;;;0.00;0.00;;;;;;;-144.99;100.00;67352.69;5054292;28;20218;-87
2023/11/11 02:55:12;;;;;;;0.00;0.00;;;;;;;-144.99;100.00;67352.69;5058954;28;20278;-86
2023/11/11 02:57:37;;;;;;;0.00;0.00;;;;;;;-144.99;100.00;67352.69;5054929;28;20689;-85
2023/11/11 03:00:03;;;;;;;0.00;0.00;;;;;;;-144.99;100.00;67352.69;5059260;28;20183;-86
2023/11/11 03:02:29;;;;;;;0.00;0.00;;;;;;;-144.99;100.00;67352.69;5064436;28;20777;-86
2023/11/11 03:04:55;;;;;;;0.00;0.00;;;;;;;-144.99;100.00;67352.69;5056594;28;20182;-85
2023/11/11 03:07:21;;;;;;;0.07;0.07;;;;;;;-144.99;100.00;67352.69;5064315;28;20665;-86
2023/11/11 03:09:46;;;;;;;0.00;0.00;;;;;;;-144.99;100.00;67352.69;5065551;28;20179;-86
2023/11/11 03:12:14;;;;;;;0.40;0.40;;;;;;;-144.99;100.00;67352.69;5058113;28;20182;-85
2023/11/11 03:14:40;;;;;;;1.53;0.50;;;;;;;-144.99;100.00;67352.69;5052290;28;20545;-87
2023/11/11 03:17:05;;;;;;;0.00;0.00;;;;;;;-144.99;100.00;67352.69;5057321;28;20206;-87
2023/11/11 03:19:31;;;;;;;0.73;0.73;;;;;;;-144.99;100.00;67352.69;5063614;28;20900;-87
2023/11/11 03:21:56;;;;;;;0.00;0.00;;;;;;;-144.99;100.00;67352.69;5056304;28;20563;-86
2023/11/11 03:24:21;;;;;;;0.00;0.00;;;;;;;-144.99;100.00;67352.69;5056820;28;20182;-86
2023/11/11 03:26:47;;;;;;;0.00;0.00;;;;;;;-144.99;100.00;67352.69;5053170;28;20221;-87
2023/11/11 03:29:12;;;;;;;0.00;0.00;;;;;;;-144.99;100.00;67352.69;5059606;28;20551;-86
2023/11/11 03:31:37;;;;;;;0.00;0.00;;;;;;;-144.99;100.00;67352.69;5063897;28;20203;-85
2023/11/11 03:34:03;;;;;;;0.00;0.00;;;;;;;-144.99;100.00;67352.69;5053030;28;20207;-87
2023/11/11 03:36:28;;;;;;;0.00;0.00;;;;;;;-144.99;100.00;67352.69;5059952;28;20804;-87
2023/11/11 03:38:53;;;;;;;0.00;0.00;;;;;;;-144.99;100.00;67352.69;5051835;28;20611;-86
2023/11/11 03:41:19;;;;;;;0.00;0.00;;;;;;;-144.99;100.00;67352.69;5058679;28;20182;-86
2023/11/11 03:43:44;;;;;;;0.00;0.00;;;;;;;-144.99;100.00;67352.69;5053075;28;20262;-87
2023/11/11 03:46:10;;;;;;;0.03;0.03;;;;;;;-144.99;100.00;67352.69;5052887;28;20178;-86
2023/11/11 03:48:35;;;;;;;0.00;0.00;;;;;;;-144.99;100.00;67352.69;5052488;28;20202;-87
2023/11/11 03:51:00;;;;;;;0.20;0.20;;;;;;;-144.99;100.00;67352.69;5051866;28;20167;-85
2023/11/11 03:53:26;;;;;;;0.00;0.00;;;;;;;-144.99;100.00;67352.69;5061048;28;20183;-86
2023/11/11 03:55:51;;;;;;;11.90;0.63;;;;;;;-144.99;100.00;67352.69;5067855;28;20198;-86
2023/11/11 03:58:18;;;;;;;0.30;0.30;;;;;;;-144.99;100.00;67352.69;5058653;28;20361;-86
2023/11/11 04:00:44;;;;;;;0.10;0.10;;;;;;;-144.99;100.00;67352.69;5061179;28;20212;-85
2023/11/11 04:03:10;;;;;;;0.10;0.10;;;;;;;-144.99;100.00;67352.69;5051368;28;20191;-86
2023/11/11 04:05:35;;;;;;;0.03;0.03;;;;;;;-144.99;100.00;67352.69;5059779;28;20593;-86
2023/11/11 04:08:00;;;;;;;0.33;0.33;;;;;;;-144.99;100.00;67352.69;5060893;28;20766;-88
2023/11/11 04:10:26;;;;;;;0.27;0.27;;;;;;;-144.99;100.00;67352.69;5068713;28;20189;-86
2023/11/11 04:12:51;;;;;;;0.50;0.50;;;;;;;-144.99;100.00;67352.69;5056054;28;20178;-87
2023/11/11 04:15:16;;;;;;;0.00;0.00;;;;;;;-144.99;100.00;67352.69;5065774;28;20245;-86
2023/11/11 04:17:43;;;;;;;0.40;0.40;;;;;;;-144.99;100.00;67352.69;5062817;28;20235;-86
2023/11/11 04:20:11;;;;;;;0.00;0.00;;;;;;;-144.99;100.00;67352.69;5063586;28;20186;-86
2023/11/11 04:22:36;;;;;;;0.00;0.00;;;;;;;-144.99;100.00;67352.69;5070232;28;20170;-87
2023/11/11 04:25:05;;;;;;;0.00;0.00;;;;;;;-144.99;100.00;67352.69;5060553;28;20190;-87
2023/11/11 04:27:31;;;;;;;0.00;0.00;;;;;;;-144.99;100.00;67352.69;5059704;28;20237;-88
2023/11/11 04:29:57;;;;;;;0.13;0.13;;;;;;;-144.99;100.00;67352.69;5052571;28;20207;-86
2023/11/11 04:32:23;;;;;;;0.10;0.10;;;;;;;-144.99;100.00;67352.69;5051156;28;20183;-85
2023/11/11 04:34:50;;;;;;;1.50;1.40;;;;;;;-144.99;100.00;67352.69;5062282;28;20190;-87
2023/11/11 04:37:15;;;;;;;0.40;0.40;;;;;;;-144.99;100.00;67352.69;5056264;28;20767;-87
2023/11/11 04:39:44;;;;;;;0.30;0.30;;;;;;;-144.99;100.00;67352.69;5062918;28;20179;-86
2023/11/11 04:42:10;;;;;;;0.00;0.00;;;;;;;-144.99;100.00;67352.69;5067000;28;20186;-87
2023/11/11 04:44:35;;;;;;;0.20;0.20;;;;;;;-144.99;100.00;67352.69;5057723;28;20190;-86
2023/11/11 04:47:01;;;;;;;0.43;0.43;;;;;;;-144.99;100.00;67352.69;5056271;28;20240;-85
2023/11/11 04:49:26;;;;;;;0.13;0.13;;;;;;;-144.99;100.00;67352.69;5064698;28;20570;-87
2023/11/11 04:51:51;;;;;;;0.00;0.00;;;;;;;-144.99;100.00;67352.69;5058426;28;20649;-87
2023/11/11 04:54:17;;;;;;;0.00;0.00;;;;;;;-144.99;100.00;67352.69;5061304;28;20183;-87
2023/11/11 04:56:42;;;;;;;0.00;0.00;;;;;;;-144.99;100.00;67352.69;5064934;28;20586;-87
2023/11/11 04:59:08;;;;;;;0.00;0.00;;;;;;;-144.99;100.00;67352.69;5061369;28;20593;-87
2023/11/11 05:01:34;;;;;;;0.37;0.37;;;;;;;-144.99;100.00;67352.69;5063126;28;20186;-86
2023/11/11 05:04:00;;;;;;;0.00;0.00;;;;;;;-144.99;100.00;67352.69;5054912;28;20179;-86
2023/11/11 05:06:27;;;;;;;1.47;0.80;;;;;;;-144.99;100.00;67352.69;5056045;28;20179;-87
2023/11/11 05:08:54;;;;;;;0.10;0.10;;;;;;;-144.99;100.00;67352.69;5059331;28;20615;-87
2023/11/11 05:11:20;;;;;;;0.33;0.33;;;;;;;-144.99;100.00;67352.69;5069092;28;20190;-87
2023/11/11 05:13:46;;;;;;;0.00;0.00;;;;;;;-144.99;100.00;67352.69;5066485;28;20183;-86
2023/11/11 05:16:27;;;;;;;0.10;0.10;;;;;;;-144.99;100.00;67352.69;5062081;28;20203;-87
2023/11/11 05:18:53;;;;;;;0.40;0.23;;;;;;;-144.99;100.00;67352.69;5066386;28;20183;-86
2023/11/11 05:21:19;;;;;;;0.30;0.30;;;;;;;-144.99;100.00;67352.69;5067743;28;20194;-87
2023/11/11 05:23:44;;;;;;;0.63;0.33;;;;;;;-144.99;100.00;67352.69;5073531;28;20555;-87
2023/11/11 05:26:10;;;;;;;0.00;0.00;;;;;;;-144.99;100.00;67352.69;5061743;28;20190;-86
2023/11/11 05:28:35;;;;;;;0.00;0.00;;;;;;;-144.99;100.00;67352.69;5055614;28;20202;-87
2023/11/11 05:31:00;;;;;;;0.00;0.00;;;;;;;-144.99;100.00;67352.69;5055915;28;20183;-87
2023/11/11 05:33:26;;;;;;;0.00;0.00;;;;;;;-144.99;100.00;67352.69;5054438;28;20500;-87
2023/11/11 05:35:51;;;;;;;0.10;0.10;;;;;;;-144.99;100.00;67352.69;5075290;28;20198;-87
2023/11/11 05:38:16;;;;;;;0.07;0.07;;;;;;;-144.99;100.00;67352.69;5060245;28;20602;-86
2023/11/11 05:40:44;;;;;;;0.00;0.00;;;;;;;-144.99;100.00;67352.69;5053429;28;20186;-88
2023/11/11 05:43:09;;;;;;;0.00;0.00;;;;;;;-144.99;100.00;67352.69;5052651;28;20675;-87
2023/11/11 05:45:35;;;;;;;0.00;0.00;;;;;;;-144.99;100.00;67352.69;5053708;28;20171;-88
2023/11/11 05:48:00;;;;;;;0.00;0.00;;;;;;;-144.99;100.00;67352.69;5057833;28;20206;-87
2023/11/11 05:50:25;;;;;;;0.00;0.00;;;;;;;-144.99;100.00;67352.69;5057169;28;20198;-88
2023/11/11 05:52:51;;;;;;;0.10;0.10;;;;;;;-144.99;100.00;67352.69;5051884;28;20189;-87
2023/11/11 05:55:17;;;;;;;0.10;0.10;;;;;;;-144.99;100.00;67352.69;5054267;28;20185;-87
2023/11/11 05:57:42;;;;;;;0.47;0.47;;;;;;;-144.99;100.00;67352.69;5054573;28;20245;-87
2023/11/11 06:00:12;;;;;;;0.00;0.00;;;;;;;-144.99;100.00;67352.69;5053078;28;20175;-87
2023/11/11 06:02:37;;;;;;;0.10;0.10;;;;;;;-144.99;100.00;67352.69;5054243;28;20187;-86
2023/11/11 06:05:03;;;;;;;0.57;0.57;;;;;;;-144.99;100.00;67352.69;5068166;28;20575;-88
2023/11/11 06:07:29;;;;;;;0.00;0.00;;;;;;;-144.99;100.00;67352.69;5054682;28;20199;-86
2023/11/11 06:09:54;;;;;;;0.10;0.10;;;;;;;-144.99;100.00;67352.69;5063248;28;20183;-86
2023/11/11 06:12:19;;;;;;;0.10;0.10;;;;;;;-144.99;100.00;67352.69;5059863;28;20182;-86
2023/11/11 06:14:45;;;;;;;1.73;0.10;;;;;;;-144.99;100.00;67352.69;5054127;28;20228;-86
2023/11/11 06:17:11;;;;;;;0.00;0.00;;;;;;;-144.99;100.00;67352.69;5069666;28;20243;-87
2023/11/11 06:19:36;;;;;;;0.20;0.20;;;;;;;-144.99;100.00;67352.69;5061193;28;20217;-86
2023/11/11 06:22:04;;;;;;;0.00;0.00;;;;;;;-144.99;100.00;67352.69;5062373;28;20186;-87
2023/11/11 06:24:31;;;;;;;1.77;0.83;;;;;;;-144.99;100.00;67352.69;5052867;28;20225;-86
2023/11/11 06:26:57;;;;;;;0.63;0.10;;;;;;;-144.99;100.00;67352.69;5058694;28;20752;-87
2023/11/11 06:29:22;;;;;;;0.00;0.00;;;;;;;-144.99;100.00;67352.69;5062446;28;20266;-87
2023/11/11 06:31:48;;;;;;;0.00;0.00;;;;;;;-144.99;100.00;67352.69;5069672;28;20205;-86
2023/11/11 06:34:13;;;;;;;0.10;0.10;;;;;;;-144.99;100.00;67352.69;5053996;28;20179;-86
2023/11/11 06:36:39;;;;;;;0.10;0.10;;;;;;;-144.99;100.00;67352.69;5069544;28;20684;-86
2023/11/11 06:39:04;;;;;;;0.33;0.33;;;;;;;-144.99;100.00;67352.69;5061422;28;20179;-87
2023/11/11 06:41:29;;;;;;;0.10;0.10;;;;;;;-144.99;100.00;67352.69;5061058;28;20270;-87
2023/11/11 06:43:55;;;;;;;0.77;0.57;;;;;;;-144.99;100.00;67352.69;5053666;28;20175;-87
2023/11/11 06:46:22;;;;;;;0.77;0.30;;;;;;;-144.99;100.00;67352.69;5059217;28;20174;-86
2023/11/11 06:48:47;;;;;;;0.83;0.67;;;;;;;-144.99;100.00;67352.69;5053111;28;20684;-87
2023/11/11 06:51:12;;;;;;;0.57;0.30;;;;;;;-144.99;100.00;67352.69;5053629;28;20210;-87
2023/11/11 06:53:38;;;;;;;0.10;0.10;;;;;;;-144.99;100.00;67352.69;5061805;28;20675;-87
2023/11/11 06:56:05;;;;;;;0.40;0.40;;;;;;;-144.99;100.00;67352.69;5058948;28;20292;-88
2023/11/11 06:58:30;;;;;;;0.23;0.23;;;;;;;-144.99;100.00;67352.69;5052337;28;20221;-86
2023/11/11 07:00:58;;;;;;;0.33;0.30;;;;;;;-144.99;100.00;67352.69;5061809;28;20266;-87
2023/11/11 07:03:23;;;;;;;0.30;0.30;;;;;;;-144.99;100.00;67352.69;5051675;28;20183;-88
2023/11/11 07:05:49;;;;;;;0.37;0.37;;;;;;;-144.99;100.00;67352.69;5053014;28;20181;-86
2023/11/11 07:08:14;;;;;;;0.20;0.20;;;;;;;-144.99;100.00;67352.69;5052263;28;20244;-87
2023/11/11 07:10:39;;;;;;;0.50;0.50;;;;;;;-144.99;100.00;67352.69;5060325;28;20190;-87
2023/11/11 07:13:06;;;;;;;2.73;0.67;;;;;;;-144.99;100.00;67352.69;5051868;28;20221;-87
2023/11/11 07:15:31;;;;;;;0.40;0.37;;;;;;;-144.99;100.00;67352.69;5051736;28;20175;-86
2023/11/11 07:17:56;;;;;;;0.10;0.10;;;;;;;-144.99;100.00;67352.69;5060820;28;20228;-87
2023/11/11 07:20:22;;;;;;;0.30;0.30;;;;;;;-144.99;100.00;67352.69;5051645;28;20186;-86
2023/11/11 07:22:54;;;;;;;0.50;0.50;;;;;;;-144.99;100.00;67352.69;5054090;28;20710;-87
2023/11/11 07:25:22;;;;;;;0.77;0.53;;;;;;;-144.99;100.00;67352.69;5055915;28;20605;-87
2023/11/11 07:27:48;;;;;;;0.20;0.20;;;;;;;-144.99;100.00;67352.69;5063567;28;20202;-87
2023/11/11 07:30:13;;;;;;;1.17;1.07;;;;;;;-144.99;100.00;67352.69;5057756;28;20178;-87
2023/11/11 07:32:43;;;;;;;0.40;0.40;;;;;;;-144.99;100.00;67352.69;5060084;28;20209;-86
2023/11/11 07:35:11;;;;;;;1.47;1.37;;;;;;;-144.99;100.00;67352.69;5052726;28;20669;-87
2023/11/11 07:37:38;;;;;;;2.40;2.20;;;;;;;-144.99;100.00;67352.69;5060677;28;20203;-87
2023/11/11 07:40:04;;;;;;;2.27;2.07;;;;;;;-144.99;100.00;67352.69;5059391;28;20185;-87
2023/11/11 07:42:30;;;;;;;2.17;1.97;;;;;;;-144.99;100.00;67352.69;5059622;28;20249;-87
2023/11/11 07:44:55;;;;;;;2.50;2.33;;;;;;;-144.99;100.00;67352.69;5051077;28;20202;-87
2023/11/11 07:47:21;;;;;;;1.27;1.27;;;;;;;-144.99;100.00;67352.69;5078126;22;20744;-90
2023/11/11 07:49:47;;;;;;;2.77;2.57;;;;;;;-144.99;100.00;67352.69;5071922;28;20662;-90
2023/11/11 07:52:13;;;;;;;3.50;3.10;;;;;;;-144.99;100.00;67352.69;5072380;28;20198;-87
2023/11/11 07:54:38;;;;;;;2.53;2.33;;;;;;;-144.99;100.00;67352.69;5071056;28;20194;-88
2023/11/11 07:57:06;;;;;;;3.40;3.13;;;;;;;-144.99;100.00;67352.69;5071168;28;20206;-87
2023/11/11 07:59:32;;;;;;;4.57;4.17;;;;;;;-144.99;100.00;67352.69;5084476;28;20178;-86
2023/11/11 08:01:59;;;;;;;4.67;4.27;;;;;;;-144.99;100.00;67352.69;5091612;28;20197;-87
2023/11/11 08:04:25;;;;;;;6.83;5.53;;;;;;;-144.99;100.00;67352.69;5078988;28;20178;-87
2023/11/11 08:06:51;;;;;;;4.00;3.50;;;;;;;-144.99;100.00;67352.69;5075387;28;20636;-87
2023/11/11 08:09:16;;;;;;;6.07;5.57;;;;;;;-144.99;100.00;67352.69;5070990;28;20613;-87
2023/11/11 08:11:43;;;;;;;5.97;5.47;;;;;;;-144.99;100.00;67352.69;5070617;28;20182;-87
2023/11/11 08:14:09;;;;;;;4.83;4.47;;;;;;;-144.99;100.00;67352.69;5070093;28;20182;-86
2023/11/11 08:16:34;;;;;;;5.03;4.63;;;;;;;-144.99;100.00;67352.69;5071339;28;20251;-87
2023/11/11 08:19:00;;;;;;;5.67;5.17;;;;;;;-144.99;100.00;67352.69;5071787;28;20269;-88
2023/11/11 08:21:31;;;;;;;6.43;4.30;;;;;;;-144.99;100.00;67352.69;5070494;28;20178;-87
2023/11/11 08:23:56;;;;;;;4.70;4.40;;;;;;;-144.99;100.00;67352.69;5071913;28;20258;-87
2023/11/11 08:26:22;;;;;;;3.93;3.37;;;;;;;-144.99;100.00;67352.69;5070269;28;20282;-87
2023/11/11 08:28:47;;;;;;;3.87;3.57;;;;;;;-144.99;100.00;67352.69;5070264;28;20209;-88
2023/11/11 08:31:13;;;;;;;3.63;3.33;;;;;;;-144.99;100.00;67352.69;5070335;28;20684;-87
2023/11/11 08:33:38;;;;;;;4.53;3.20;;;;;;;-144.99;100.00;67352.69;5070254;28;20212;-86
2023/11/11 08:36:03;;;;;;;3.97;3.67;;;;;;;-144.99;100.00;67352.69;5070346;28;20202;-87
2023/11/11 08:38:29;;;;;;;3.70;3.30;;;;;;;-144.99;100.00;67352.69;5070306;28;20244;-87
2023/11/11 08:40:54;;;;;;;4.13;3.83;;;;;;;-144.99;100.00;67352.69;5070461;28;20264;-87
2023/11/11 08:43:20;;;;;;;3.43;3.13;;;;;;;-144.99;100.00;67352.69;5071576;28;20585;-87
2023/11/11 08:45:46;;;;;;;3.50;3.30;;;;;;;-144.99;100.00;67352.69;5070000;28;20182;-87
2023/11/11 08:48:13;;;;;;;3.40;3.10;;;;;;;-144.99;100.00;67352.69;5070412;28;20217;-87
2023/11/11 08:50:39;;;;;;;2.97;2.77;;;;;;;-144.99;100.00;67352.69;5070367;28;20209;-86
2023/11/11 08:53:05;;;;;;;4.23;3.87;;;;;;;-144.99;100.00;67352.69;5062077;28;20595;-87
2023/11/11 08:55:30;;;;;;;5.93;2.93;;;;;;;-144.99;100.00;67352.69;5071025;28;20604;-87
2023/11/11 08:57:56;;;;;;;8.73;2.80;;;;;;;-144.99;100.00;67352.69;5070524;28;20228;-87
2023/11/11 09:00:22;;;;;;;3.20;2.97;;;;;;;-144.99;100.00;67352.69;5071491;28;20178;-87
2023/11/11 09:02:49;;;;;;;5.70;2.37;;;;;;;-144.99;100.00;67352.69;5070317;28;20194;-87
2023/11/11 09:05:14;;;;;;;2.67;2.40;;;;;;;-144.99;100.00;67352.69;5070028;28;20190;-87
2023/11/11 09:07:39;;;;;;;1.87;1.77;;;;;;;-144.99;100.00;67352.69;5070041;28;20204;-87
2023/11/11 09:10:05;;;;;;;13.77;2.93;;;;;;;-144.99;100.00;67352.69;5071431;28;20186;-87
2023/11/11 09:12:32;;;;;;;2.97;2.67;;;;;;;-144.99;100.00;67352.69;5069877;28;20193;-87
2023/11/11 09:14:57;;;;;;;4.90;1.83;;;;;;;-144.99;100.00;67352.69;5069756;28;20648;-86
2023/11/11 09:17:24;;;;;;;2.27;2.07;;;;;;;-144.99;100.00;67352.69;5069998;28;20217;-87
2023/11/11 09:19:50;;;;;;;2.43;2.27;;;;;;;-144.99;100.00;67352.69;5070034;28;20656;-87
2023/11/11 09:22:15;;;;;;;3.70;3.33;;;;;;;-144.99;100.00;67352.69;5070165;28;20178;-86
2023/11/11 09:24:41;;;;;;;1.37;1.10;;;;;;;-144.99;100.00;67352.69;5069701;28;20186;-87
2023/11/11 09:27:06;;;;;;;1.57;1.47;;;;;;;-144.99;100.00;67352.69;5072333;28;20189;-87
2023/11/11 09:29:32;;;;;;;0.90;0.90;;;;;;;-144.99;100.00;67352.69;5073765;28;20194;-87
2023/11/11 09:31:57;;;;;;;1.60;1.20;;;;;;;-144.99;100.00;67352.69;5073553;28;20648;-86
2023/11/11 09:34:23;;;;;;;0.97;0.97;;;;;;;-144.99;100.00;67352.69;5073295;28;20218;-86
2023/11/11 09:36:49;;;;;;;10.43;2.10;;;;;;;-144.99;100.00;67352.69;5074507;28;20236;-87
2023/11/11 09:39:14;;;;;;;1.03;1.00;;;;;;;-144.99;100.00;67352.69;5073344;28;20202;-87
2023/11/11 09:41:41;;;;;;;2.53;1.50;;;;;;;-144.99;100.00;67352.69;5073126;28;20217;-87
2023/11/11 09:44:07;;;;;;;1.13;1.03;;;;;;;-144.99;100.00;67352.69;5074456;28;20190;-87
2023/11/11 09:46:38;;;;;;;1.40;1.20;;;;;;;-144.99;100.00;67352.69;5073263;28;20674;-87
2023/11/11 09:49:04;;;;;;;1.47;1.13;;;;;;;-144.99;100.00;67352.69;5074594;28;20218;-86
2023/11/11 09:51:32;;;;;;;1.67;1.10;;;;;;;-144.99;100.00;67352.69;5074327;28;20269;-86
2023/11/11 09:54:00;;;;;;;3.23;2.20;;;;;;;-144.99;100.00;67352.69;5066201;28;20187;-87
2023/11/11 09:56:28;;;;;;;0.80;0.80;;;;;;;-144.99;100.00;67352.69;5073942;28;20197;-87
2023/11/11 09:58:54;;;;;;;1.03;0.93;;;;;;;-144.99;100.00;67352.69;5073025;28;20212;-87
2023/11/11 10:01:19;;;;;;;5.73;0.80;;;;;;;-144.99;100.00;67352.69;5073008;28;20615;-86
2023/11/11 10:03:45;;;;;;;0.70;0.70;;;;;;;-144.99;100.00;67352.69;5074164;28;20300;-87
2023/11/11 10:06:11;;;;;;;0.90;0.90;;;;;;;-144.99;100.00;67352.69;5072774;28;20265;-86
2023/11/11 10:08:36;;;;;;;2.03;1.10;;;;;;;-144.99;100.00;67352.69;5072883;28;20232;-87
2023/11/11 10:11:02;;;;;;;2.37;1.53;;;;;;;-144.99;100.00;67352.69;5074130;28;20178;-87
2023/11/11 10:13:27;;;;;;;1.30;1.20;;;;;;;-144.99;100.00;67352.69;5072713;28;20198;-87
2023/11/11 10:16:28;;;;;;;1.67;1.23;;;;;;;-144.99;100.00;67352.69;5073664;28;20198;-87
2023/11/11 10:18:58;;;;;;;1.40;1.30;;;;;;;-144.99;100.00;67352.69;5011730;28;20226;-87
2023/11/11 10:21:24;;;;;;;2.33;1.47;;;;;;;-144.99;100.00;67352.69;5057826;28;20201;-87
2023/11/11 10:23:55;;;;;;;1.00;0.90;;;;;;;-144.99;100.00;67352.69;5072947;28;20225;-87
2023/11/11 10:26:21;;;;;;;0.57;0.57;;;;;;;-144.99;100.00;67352.69;5072502;28;20322;-87
2023/11/11 10:28:48;;;;;;;0.97;0.93;;;;;;;-144.99;100.00;67352.69;5073803;28;20667;-87
2023/11/11 10:31:14;;;;;;;1.37;1.17;;;;;;;-144.99;100.00;67352.69;5073806;28;20206;-88
2023/11/11 10:33:39;;;;;;;1.07;0.90;;;;;;;-144.99;100.00;67352.69;5072319;28;20213;-86
2023/11/11 10:36:07;;;;;;;0.63;0.63;;;;;;;-144.99;100.00;67352.69;5073244;28;20304;-87
2023/11/11 10:38:32;;;;;;;2.07;0.83;;;;;;;-144.99;100.00;67352.69;5071623;28;20251;-87
2023/11/11 10:40:58;;;;;;;1.03;1.03;;;;;;;-144.99;100.00;67352.69;5072145;28;20186;-87
2023/11/11 10:43:27;;;;;;;0.97;0.97;;;;;;;-144.99;100.00;67352.69;5072368;28;20182;-87
2023/11/11 10:45:54;;;;;;;1.80;1.30;;;;;;;-144.99;100.00;67352.69;5071981;28;20182;-87
2023/11/11 10:48:21;;;;;;;1.13;1.03;;;;;;;-144.99;100.00;67352.69;5072225;28;20238;-87
2023/11/11 10:50:47;;;;;;;2.20;1.47;;;;;;;-144.99;100.00;67352.69;5072070;28;20194;-87
2023/11/11 10:53:12;;;;;;;1.23;0.90;;;;;;;-144.99;100.00;67352.69;5072011;28;20182;-87
2023/11/11 10:55:38;;;;;;;1.90;1.27;;;;;;;-144.99;100.00;67352.69;5071685;28;20182;-87
2023/11/11 10:58:06;;;;;;;0.73;0.73;;;;;;;-144.99;100.00;67352.69;5073224;28;20198;-87
2023/11/11 11:00:34;;;;;;;2.13;2.00;;;;;;;-144.99;100.00;67352.69;5073069;28;20182;-87
2023/11/11 11:03:00;;;;;;;1.63;1.53;;;;;;;-144.99;100.00;67352.69;5071681;28;20234;-87
2023/11/11 11:05:34;;;;;;;6.03;1.47;;;;;;;-144.99;100.00;67352.69;5071699;28;20711;-87